Time;durP1;ratioP1;P1;durP2;ratioP2;P2;SDS_P1;SDS_P2;PMS_P1;PMS_P2;Temp;Humidity;BMP_temperature;BMP_pressure;BME280_temperature;BME280_humidity;BME280_pressure;Samples;Min_cycle;Max_cycle;Signal;HPM_P1;HPM_P2
2021/01/05 00:02:30;;;;;;;7.28;5.57;;;;;;;2.32;91.52;101609.22;10374500;28;20080;-78
2021/01/05 00:07:31;;;;;;;9.77;6.50;;;;;;;2.05;90.86;101570.56;10351943;28;20077;-77
2021/01/05 00:12:32;;;;;;;7.38;5.70;;;;;;;2.40;90.87;101624.63;10355881;28;20049;-79
2021/01/05 00:17:32;;;;;;;8.95;6.25;;;;;;;2.16;90.87;101591.78;10374780;28;20038;-78
2021/01/05 00:22:35;;;;;;;8.15;6.05;;;;;;;2.52;90.86;101627.66;10348096;28;20036;-77
2021/01/05 00:27:35;;;;;;;9.48;6.30;;;;;;;2.58;90.33;101624.94;10371483;28;20061;-77
2021/01/05 00:32:40;;;;;;;10.02;6.18;;;;;;;1.62;90.58;101493.19;10360634;28;20260;-79
2021/01/05 00:37:40;;;;;;;9.93;7.00;;;;;;;2.41;91.53;101620.84;10379611;28;20152;-76
2021/01/05 00:42:41;;;;;;;8.55;6.05;;;;;;;2.44;91.33;101622.94;10354626;28;20423;-75
2021/01/05 00:47:42;;;;;;;9.23;6.15;;;;;;;2.45;92.04;101643.22;10373921;28;20462;-75
2021/01/05 00:52:42;;;;;;;8.60;6.85;;;;;;;2.03;91.74;101580.72;10346805;28;20041;-76
2021/01/05 00:57:43;;;;;;;8.40;6.13;;;;;;;2.31;92.13;101626.31;10379565;28;20046;-77
2021/01/05 01:02:46;;;;;;;10.55;7.43;;;;;;;2.29;92.24;101617.81;10348046;28;20088;-77
2021/01/05 01:07:47;;;;;;;8.68;6.35;;;;;;;2.39;92.24;101633.69;10383076;28;20101;-76
2021/01/05 01:12:47;;;;;;;10.18;6.97;;;;;;;2.48;92.37;101645.31;10366763;28;20053;-77
2021/01/05 01:17:48;;;;;;;9.40;6.43;;;;;;;2.44;92.33;101652.31;10359626;28;20086;-76
2021/01/05 01:22:48;;;;;;;11.68;7.25;;;;;;;2.45;92.84;101648.56;10339194;28;20044;-76
2021/01/05 01:27:49;;;;;;;13.43;7.72;;;;;;;2.36;93.46;101642.25;10350112;28;20034;-76
2021/01/05 01:32:49;;;;;;;9.73;7.15;;;;;;;2.16;94.16;101623.78;10353494;28;20044;-77
2021/01/05 01:37:50;;;;;;;12.25;7.63;;;;;;;2.33;94.22;101648.19;10356592;28;20532;-77
2021/01/05 01:42:52;;;;;;;;;;;;;;;2.26;94.87;101655.72;10374173;28;20040;-75
2021/01/05 01:47:53;;;;;;;9.73;7.38;;;;;;;2.16;95.76;101650.47;10378249;28;19925;-77
2021/01/05 01:52:57;;;;;;;12.50;8.43;;;;;;;2.28;95.40;101669.56;10356022;28;20285;-76
2021/01/05 01:58:07;;;;;;;11.48;7.82;;;;;;;2.26;96.28;101661.06;10374676;28;20022;-77
2021/01/05 02:03:21;;;;;;;11.85;8.15;;;;;;;2.16;96.26;101650.47;10364950;28;20033;-76
2021/01/05 02:08:43;;;;;;;12.18;9.35;;;;;;;2.18;96.85;101659.00;10365776;28;20122;-75
2021/01/05 02:13:59;;;;;;;12.47;8.77;;;;;;;2.19;97.65;101660.56;10353950;28;20125;-75
2021/01/05 02:19:09;;;;;;;13.43;8.93;;;;;;;2.21;97.98;101663.75;10347869;28;20057;-75
2021/01/05 02:24:19;;;;;;;12.52;9.13;;;;;;;2.21;97.22;101658.41;10353609;28;20137;-76
2021/01/05 02:29:23;;;;;;;13.52;8.68;;;;;;;1.80;97.27;101589.50;10348775;28;20092;-76
2021/01/05 02:35:01;;;;;;;12.80;9.27;;;;;;;2.09;97.45;101651.63;10380052;28;20103;-75
2021/01/05 02:40:08;;;;;;;13.68;10.18;;;;;;;2.15;96.90;101654.22;10342865;28;20180;-75
2021/01/05 02:45:17;;;;;;;12.55;9.18;;;;;;;2.14;97.07;101652.63;10353295;28;20541;-75
2021/01/05 02:50:53;;;;;;;12.80;9.50;;;;;;;2.11;96.90;101628.09;10367850;28;20076;-75
2021/01/05 02:56:12;;;;;;;12.30;8.93;;;;;;;2.19;96.13;101639.22;10346529;28;20029;-75
2021/01/05 03:01:50;;;;;;;13.18;9.02;;;;;;;2.13;96.23;101640.38;10342111;28;20042;-75
2021/01/05 03:06:53;;;;;;;11.50;8.43;;;;;;;1.78;95.60;101571.09;10369091;28;20558;-75
2021/01/05 03:12:14;;;;;;;11.93;8.93;;;;;;;1.98;95.64;101596.78;10355408;28;20034;-75
2021/01/05 03:17:21;;;;;;;13.93;9.38;;;;;;;1.85;95.75;101586.78;10380204;28;20038;-77
2021/01/05 03:22:25;;;;;;;12.32;8.60;;;;;;;1.82;95.19;101576.69;10361084;28;20156;-75
2021/01/05 03:27:26;;;;;;;14.38;9.43;;;;;;;2.09;94.16;101608.94;10353062;28;20113;-75
2021/01/05 03:32:27;;;;;;;13.73;9.93;;;;;;;1.62;94.59;101551.81;10356718;28;20041;-75
2021/01/05 03:37:27;;;;;;;12.07;9.60;;;;;;;1.88;94.99;101586.19;10358068;28;20379;-75
2021/01/05 03:42:27;;;;;;;12.98;9.70;;;;;;;2.09;94.94;101619.59;10360552;28;20490;-74
2021/01/05 03:47:28;;;;;;;14.27;9.50;;;;;;;2.14;94.69;101637.44;10367638;28;20033;-77
2021/01/05 03:52:28;;;;;;;15.05;10.18;;;;;;;2.09;95.00;101630.28;10349320;28;20049;-76
2021/01/05 03:57:29;;;;;;;13.75;9.77;;;;;;;2.16;94.89;101645.13;10382691;28;20060;-76
2021/01/05 04:02:29;;;;;;;14.95;10.45;;;;;;;1.24;94.63;101492.97;10375531;28;20125;-76
2021/01/05 04:07:30;;;;;;;13.80;9.88;;;;;;;1.81;95.28;101569.75;10331420;28;20045;-77
2021/01/05 04:12:30;;;;;;;13.45;9.82;;;;;;;2.18;94.21;101621.66;10376506;28;20096;-77
2021/01/05 04:17:30;;;;;;;15.02;10.15;;;;;;;2.08;94.95;101623.34;10373433;28;20038;-77
2021/01/05 04:22:31;;;;;;;14.60;10.18;;;;;;;1.79;94.59;101570.03;10361620;28;20075;-77
2021/01/05 04:27:32;;;;;;;15.90;10.55;;;;;;;2.00;95.58;101605.28;10385054;28;20052;-77
2021/01/05 04:32:32;;;;;;;16.98;10.35;;;;;;;1.41;94.59;101518.41;10358521;28;20461;-77
2021/01/05 04:37:33;;;;;;;16.15;11.07;;;;;;;1.20;95.11;101486.66;10352606;28;20092;-75
2021/01/05 04:42:38;;;;;;;14.30;10.10;;;;;;;2.15;94.42;101632.88;10358879;28;20429;-76
2021/01/05 04:48:19;;;;;;;14.43;10.52;;;;;;;2.17;93.94;101620.06;10360467;28;20387;-76
2021/01/05 04:53:25;;;;;;;13.25;9.35;;;;;;;2.16;93.62;101623.78;10357977;28;20025;-77
2021/01/05 04:58:33;;;;;;;13.57;9.65;;;;;;;2.01;93.36;101612.22;10349951;28;20466;-78
2021/01/05 05:03:57;;;;;;;16.33;9.88;;;;;;;1.88;94.24;101575.53;10349387;28;20030;-76
2021/01/05 05:09:05;;;;;;;12.45;8.95;;;;;;;2.22;93.82;101633.34;10352190;28;20076;-75
2021/01/05 05:14:16;;;;;;;12.48;9.25;;;;;;;1.81;93.47;101580.41;10364166;28;20041;-77
2021/01/05 05:19:31;;;;;;;12.60;9.05;;;;;;;2.06;94.23;101625.50;10367202;28;20049;-76
2021/01/05 05:24:47;;;;;;;14.02;9.88;;;;;;;1.86;93.64;101588.38;10369185;28;20064;-75
2021/01/05 05:29:59;;;;;;;12.50;9.13;;;;;;;2.07;93.43;101627.09;10356712;28;20026;-75
2021/01/05 05:35:27;;;;;;;12.98;9.68;;;;;;;2.05;94.35;101623.91;10341867;28;20049;-74
2021/01/05 05:40:37;;;;;;;12.13;8.77;;;;;;;2.22;93.85;101644.03;10374263;28;20038;-74
2021/01/05 05:45:44;;;;;;;12.90;9.30;;;;;;;1.77;93.46;101600.72;10365828;28;20116;-73
2021/01/05 05:51:22;;;;;;;12.63;9.13;;;;;;;2.20;94.07;101656.84;10359178;28;20402;-74
2021/01/05 05:56:33;;;;;;;13.50;9.77;;;;;;;2.18;93.23;101643.00;10347073;28;20553;-74
2021/01/05 06:01:38;;;;;;;13.15;9.40;;;;;;;1.94;93.63;101606.41;10391934;28;20466;-73
2021/01/05 06:06:40;;;;;;;13.77;9.70;;;;;;;2.17;93.26;101652.06;10369767;28;20437;-75
2021/01/05 06:11:40;;;;;;;13.60;9.75;;;;;;;2.21;93.32;101674.41;10382791;28;20050;-73
2021/01/05 06:16:40;;;;;;;13.18;9.52;;;;;;;1.83;93.71;101610.25;10341623;28;20139;-74
2021/01/05 06:21:41;;;;;;;15.90;10.27;;;;;;;2.23;93.62;101678.41;10329997;28;20057;-77
2021/01/05 06:26:41;;;;;;;14.55;10.13;;;;;;;2.09;94.26;101662.28;10385045;28;20089;-73
2021/01/05 06:31:42;;;;;;;15.63;10.82;;;;;;;1.72;94.36;101614.88;10384230;28;20037;-74
2021/01/05 06:36:45;;;;;;;16.95;10.88;;;;;;;1.91;94.60;101646.97;10376686;28;20033;-72
2021/01/05 06:41:45;;;;;;;15.63;11.10;;;;;;;2.07;94.48;101669.78;10385396;28;20187;-73
2021/01/05 06:46:55;;;;;;;14.82;10.60;;;;;;;1.95;94.66;101650.66;10383338;28;20037;-76
2021/01/05 06:51:56;;;;;;;18.52;11.35;;;;;;;2.05;94.66;101661.25;10380778;28;20072;-75
2021/01/05 06:56:57;;;;;;;16.85;11.50;;;;;;;1.81;95.03;101633.72;10382845;28;20105;-75
2021/01/05 07:02:00;;;;;;;15.88;10.68;;;;;;;1.82;94.90;101630.00;10372845;28;20041;-75
2021/01/05 07:07:01;;;;;;;;;;;;;;;2.18;95.69;101685.66;10370278;28;20042;-73
2021/01/05 07:12:01;;;;;;;17.65;11.63;;;;;;;2.21;95.71;101690.44;10357351;28;19929;-73
2021/01/05 07:17:01;;;;;;;16.98;11.25;;;;;;;2.22;94.96;101686.69;10375408;28;20478;-73
2021/01/05 07:22:05;;;;;;;16.98;11.43;;;;;;;1.77;95.09;101627.38;10352241;28;20572;-73
2021/01/05 07:27:06;;;;;;;18.90;12.13;;;;;;;1.82;95.45;101646.00;10373145;28;20104;-78
2021/01/05 07:32:09;;;;;;;20.02;12.10;;;;;;;2.14;95.77;101700.63;10360928;28;20561;-76
2021/01/05 07:37:15;;;;;;;20.23;12.63;;;;;;;2.04;95.71;101698.84;10362025;28;20037;-73
2021/01/05 07:42:23;;;;;;;20.80;13.60;;;;;;;2.14;97.00;101716.63;10342578;28;20034;-74
2021/01/05 07:47:29;;;;;;;19.92;13.13;;;;;;;1.88;96.85;101676.84;10380255;28;20065;-78
2021/01/05 07:52:37;;;;;;;20.70;13.00;;;;;;;1.72;96.76;101651.38;10361019;28;20037;-75
2021/01/05 07:57:38;;;;;;;21.08;13.65;;;;;;;2.14;96.55;101721.97;10362403;28;20068;-78
2021/01/05 08:02:39;;;;;;;20.90;13.77;;;;;;;1.84;97.18;101673.16;10368146;28;20029;-75
2021/01/05 08:07:39;;;;;;;20.55;13.05;;;;;;;1.79;97.20;101659.88;10350832;28;20046;-74
2021/01/05 08:12:39;;;;;;;23.63;14.13;;;;;;;1.40;97.40;101612.75;10365255;28;20482;-75
2021/01/05 08:17:40;;;;;;;23.98;14.50;;;;;;;1.82;97.84;101677.97;10372277;28;20030;-73
2021/01/05 08:22:40;;;;;;;22.67;14.48;;;;;;;2.17;97.72;101716.88;10367643;28;20049;-76
2021/01/05 08:27:47;;;;;;;23.08;13.82;;;;;;;2.19;97.93;101719.25;10354216;28;20041;-75
2021/01/05 08:32:48;;;;;;;24.88;13.77;;;;;;;2.22;97.76;101724.06;10377193;28;20051;-75
2021/01/05 08:37:49;;;;;;;26.27;14.88;;;;;;;1.93;98.08;101694.69;10373635;28;20665;-74
2021/01/05 08:42:49;;;;;;;26.40;14.38;;;;;;;2.11;97.59;101704.66;10375237;28;20112;-75
2021/01/05 08:47:50;;;;;;;21.92;13.70;;;;;;;1.88;97.22;101660.84;10373230;28;20033;-74
2021/01/05 08:52:50;;;;;;;19.33;13.55;;;;;;;2.18;96.87;101701.66;10371348;28;20041;-79
2021/01/05 08:57:51;;;;;;;27.38;15.02;;;;;;;1.69;96.87;101632.25;10367982;28;20128;-73
2021/01/05 09:02:51;;;;;;;22.33;13.85;;;;;;;2.31;96.99;101722.38;10352684;28;20497;-73
2021/01/05 09:07:52;;;;;;;22.23;13.60;;;;;;;2.07;96.64;101680.44;10377342;28;20052;-73
2021/01/05 09:12:53;;;;;;;24.88;13.77;;;;;;;2.41;96.62;101706.25;10366180;28;20049;-76
2021/01/05 09:17:54;;;;;;;22.98;14.15;;;;;;;2.14;96.54;101663.28;10353673;28;20502;-74
2021/01/05 09:22:55;;;;;;;23.45;13.75;;;;;;;2.26;95.92;101677.06;10373538;28;20041;-73
2021/01/05 09:27:55;;;;;;;21.63;14.07;;;;;;;2.31;95.65;101679.69;10362233;28;20555;-73
2021/01/05 09:32:56;;;;;;;23.33;14.45;;;;;;;2.28;95.16;101674.88;10365544;28;20088;-75
2021/01/05 09:37:56;;;;;;;21.38;12.95;;;;;;;2.61;94.63;101731.13;10376015;28;20037;-74
2021/01/05 09:42:57;;;;;;;24.40;15.13;;;;;;;2.43;94.86;101698.75;10365917;28;20030;-73
2021/01/05 09:48:10;;;;;;;20.00;13.18;;;;;;;2.76;94.39;101749.66;10375376;28;20116;-78
2021/01/05 09:53:11;;;;;;;19.58;13.40;;;;;;;2.82;94.24;101743.19;10368293;28;20042;-74
2021/01/05 09:58:11;;;;;;;19.65;13.20;;;;;;;2.77;93.66;101727.22;10377805;28;20037;-73
2021/01/05 10:03:12;;;;;;;19.85;13.38;;;;;;;2.21;93.25;101653.91;10384250;28;22022;-73
2021/01/05 10:08:12;;;;;;;21.10;13.80;;;;;;;2.81;93.23;101749.59;10378792;28;20050;-73
2021/01/05 10:13:13;;;;;;;22.27;13.38;;;;;;;2.81;93.65;101752.28;10368274;28;20116;-73
2021/01/05 10:18:16;;;;;;;20.42;14.20;;;;;;;2.74;93.45;101733.13;10378711;28;20534;-73
2021/01/05 10:23:16;;;;;;;19.30;13.45;;;;;;;2.80;93.51;101740.03;10378644;28;20038;-73
2021/01/05 10:28:19;;;;;;;20.58;13.02;;;;;;;2.85;93.38;101742.63;10382230;28;20038;-74
2021/01/05 10:33:19;;;;;;;19.30;12.52;;;;;;;2.77;92.79;101729.88;10372172;28;20046;-75
2021/01/05 10:38:20;;;;;;;19.27;12.38;;;;;;;2.77;93.26;101724.56;10359087;28;20045;-75
2021/01/05 10:43:21;;;;;;;17.50;11.73;;;;;;;2.79;92.87;101733.06;10388864;28;20050;-75
2021/01/05 10:48:21;;;;;;;17.83;12.25;;;;;;;2.45;92.48;101664.59;10357694;28;20048;-75
2021/01/05 10:53:24;;;;;;;21.17;13.02;;;;;;;2.86;92.03;101722.84;10364631;28;20045;-75
2021/01/05 10:58:24;;;;;;;19.33;12.70;;;;;;;2.79;92.67;101718.94;10372885;28;20179;-75
2021/01/05 11:03:25;;;;;;;20.90;12.02;;;;;;;2.74;92.46;101693.09;10342986;28;20107;-75
2021/01/05 11:08:25;;;;;;;18.83;11.75;;;;;;;2.85;92.05;101720.47;10366975;28;20058;-75
2021/01/05 11:13:28;;;;;;;22.08;12.48;;;;;;;2.82;92.50;101705.78;10379049;28;20136;-75
2021/01/05 11:18:29;;;;;;;19.13;12.38;;;;;;;2.75;92.73;101694.66;10365703;28;20038;-73
2021/01/05 11:23:29;;;;;;;18.80;12.90;;;;;;;2.51;92.24;101663.44;10355662;28;20045;-74
2021/01/05 11:28:30;;;;;;;19.75;12.48;;;;;;;2.71;92.72;101656.28;10387475;28;20321;-75
2021/01/05 11:33:31;;;;;;;17.85;12.20;;;;;;;3.13;91.90;101710.78;10382618;28;20484;-75
2021/01/05 11:38:32;;;;;;;18.10;11.73;;;;;;;3.20;91.34;101689.03;10369449;28;20033;-74
2021/01/05 11:43:32;;;;;;;18.02;11.48;;;;;;;2.99;90.47;101640.44;10386672;28;20037;-74
2021/01/05 11:48:32;;;;;;;18.63;12.68;;;;;;;3.52;90.49;101697.13;10343578;28;20135;-74
2021/01/05 11:53:33;;;;;;;17.80;11.57;;;;;;;3.59;87.95;101678.06;10369193;28;20085;-75
2021/01/05 11:58:33;;;;;;;19.15;12.10;;;;;;;3.24;87.39;101626.72;10364447;28;20144;-75
2021/01/05 12:03:34;;;;;;;17.20;12.38;;;;;;;3.71;87.95;101677.59;10374702;28;20291;-76
2021/01/05 12:08:34;;;;;;;19.58;12.93;;;;;;;3.75;87.12;101674.06;10348806;28;20054;-74
2021/01/05 12:13:35;;;;;;;16.02;11.82;;;;;;;3.53;86.50;101623.09;10365206;28;20050;-75
2021/01/05 12:18:37;;;;;;;18.15;11.80;;;;;;;3.73;86.90;101644.13;10385126;28;20026;-74
2021/01/05 12:23:37;;;;;;;17.13;11.57;;;;;;;3.83;87.30;101669.13;10352399;28;20049;-74
2021/01/05 12:28:37;;;;;;;18.00;12.43;;;;;;;3.72;86.38;101642.56;10366524;28;20657;-73
2021/01/05 12:33:38;;;;;;;15.68;11.25;;;;;;;3.56;86.42;101614.47;10359114;28;20037;-75
2021/01/05 12:38:39;;;;;;;16.60;11.95;;;;;;;3.59;86.84;101628.03;10379406;28;20060;-74
2021/01/05 12:43:39;;;;;;;17.55;12.23;;;;;;;3.68;86.22;101652.25;10371522;28;20556;-76
2021/01/05 12:48:40;;;;;;;16.02;11.63;;;;;;;3.61;86.62;101646.47;10372636;28;20040;-77
2021/01/05 12:53:43;;;;;;;18.45;12.40;;;;;;;3.62;87.36;101648.06;10347844;28;20037;-77
2021/01/05 12:58:43;;;;;;;17.90;11.90;;;;;;;3.59;87.08;101637.94;10353175;28;20061;-78
2021/01/05 13:03:47;;;;;;;18.90;12.95;;;;;;;3.65;87.01;101642.13;10355299;28;20377;-79
2021/01/05 13:08:48;;;;;;;15.98;11.20;;;;;;;3.47;87.10;101613.56;10353079;28;20132;-75
2021/01/05 13:13:49;;;;;;;17.13;12.05;;;;;;;3.64;86.33;101635.19;10320220;28;20029;-76
2021/01/05 13:18:50;;;;;;;18.95;12.15;;;;;;;3.68;86.41;101630.84;10361198;28;20042;-77
2021/01/05 13:23:51;;;;;;;16.23;11.95;;;;;;;2.93;86.28;101533.66;10368916;28;20139;-75
2021/01/05 13:28:51;;;;;;;16.95;11.68;;;;;;;3.63;86.01;101633.63;10346710;28;20049;-76
2021/01/05 13:33:52;;;;;;;16.75;11.82;;;;;;;3.67;86.36;101645.31;10361364;28;20308;-76
2021/01/05 13:38:53;;;;;;;19.85;13.27;;;;;;;3.62;86.56;101642.69;10370570;28;20033;-74
2021/01/05 13:43:53;;;;;;;18.55;11.68;;;;;;;3.67;86.84;101661.38;10373307;28;20029;-76
2021/01/05 13:48:54;;;;;;;17.85;12.23;;;;;;;3.30;87.12;101614.88;10374403;28;20045;-77
2021/01/05 13:53:55;;;;;;;17.55;12.38;;;;;;;3.57;87.45;101651.63;10372840;28;20042;-78
2021/01/05 13:58:56;;;;;;;19.92;13.20;;;;;;;3.56;87.64;101662.59;10379821;28;20762;-77
2021/01/05 14:03:56;;;;;;;18.77;13.30;;;;;;;2.61;87.83;101539.75;10373789;28;20033;-77
2021/01/05 14:09:00;;;;;;;17.55;12.57;;;;;;;3.09;88.48;101592.22;10339654;28;20057;-78
2021/01/05 14:14:00;;;;;;;19.23;13.50;;;;;;;3.27;88.58;101634.16;10379671;28;20587;-79
2021/01/05 14:19:01;;;;;;;18.73;12.90;;;;;;;3.15;89.09;101607.06;10378922;28;20052;-75
2021/01/05 14:24:03;;;;;;;20.10;13.23;;;;;;;3.53;88.82;101676.56;10378197;28;20044;-76
2021/01/05 14:29:03;;;;;;;18.80;12.93;;;;;;;3.03;88.77;101604.06;10350640;28;20673;-75
2021/01/05 14:34:04;;;;;;;19.13;12.98;;;;;;;3.01;89.22;101603.53;10378227;28;20052;-76
2021/01/05 14:39:06;;;;;;;23.35;14.02;;;;;;;2.70;89.50;101555.91;10385625;28;20042;-75
2021/01/05 14:44:11;;;;;;;20.65;13.27;;;;;;;3.10;90.08;101631.19;10373607;28;20090;-76
2021/01/05 14:49:12;;;;;;;17.33;11.75;;;;;;;3.27;89.41;101658.22;10353105;28;20045;-74
2021/01/05 14:54:14;;;;;;;20.15;13.38;;;;;;;2.97;89.97;101612.16;10381545;28;20041;-76
2021/01/05 14:59:14;;;;;;;19.63;12.83;;;;;;;2.93;89.89;101605.78;10356076;28;20152;-77
2021/01/05 15:04:15;;;;;;;19.63;13.00;;;;;;;3.39;90.05;101679.94;10360353;28;20029;-75
2021/01/05 15:09:20;;;;;;;18.20;12.20;;;;;;;3.39;90.82;101677.28;10346911;28;20057;-73
2021/01/05 15:14:23;;;;;;;20.98;12.45;;;;;;;3.29;90.02;101656.06;10355160;28;20080;-76
2021/01/05 15:19:24;;;;;;;17.55;11.73;;;;;;;3.37;90.44;101690.13;10356883;28;20052;-77
2021/01/05 15:24:25;;;;;;;16.90;11.73;;;;;;;3.18;91.00;101657.28;10353154;28;20117;-81
2021/01/05 15:29:26;;;;;;;18.70;12.52;;;;;;;3.03;90.74;101625.41;10363369;28;20037;-77
2021/01/05 15:34:28;;;;;;;19.30;12.60;;;;;;;3.28;90.94;101659.78;10358860;28;20046;-81
2021/01/05 15:39:31;;;;;;;19.23;12.57;;;;;;;2.43;90.80;101543.97;10361473;28;20046;-74
2021/01/05 15:44:34;;;;;;;18.60;11.93;;;;;;;2.94;92.51;101623.41;10359454;28;20042;-78
2021/01/05 15:49:34;;;;;;;19.08;11.52;;;;;;;3.12;92.91;101655.75;10367300;28;20068;-78
2021/01/05 15:54:34;;;;;;;20.73;12.23;;;;;;;3.28;93.07;101681.19;10370941;28;20104;-76
2021/01/05 15:59:35;;;;;;;20.63;12.63;;;;;;;2.73;93.72;101587.38;10367094;28;20107;-74
2021/01/05 16:04:35;;;;;;;23.92;14.63;;;;;;;3.23;94.31;101673.22;10375067;28;20038;-78
2021/01/05 16:09:36;;;;;;;22.60;12.75;;;;;;;2.90;94.43;101627.72;10350996;28;20053;-76
2021/01/05 16:14:36;;;;;;;25.60;15.20;;;;;;;2.95;94.19;101641.00;10379720;28;20557;-75
2021/01/05 16:19:37;;;;;;;28.95;17.02;;;;;;;3.24;94.26;101672.13;10347059;28;20041;-76
2021/01/05 16:24:37;;;;;;;25.15;15.07;;;;;;;3.11;94.31;101664.84;10367670;28;20037;-80
2021/01/05 16:29:38;;;;;;;23.73;15.20;;;;;;;3.22;94.57;101687.66;10378979;28;20166;-76
2021/01/05 16:34:38;;;;;;;25.45;15.23;;;;;;;3.23;94.24;101673.22;10352166;28;20346;-77
2021/01/05 16:39:39;;;;;;;21.88;14.50;;;;;;;2.89;94.15;101615.47;10346974;28;20034;-75
2021/01/05 16:44:40;;;;;;;21.50;14.32;;;;;;;2.97;93.53;101649.53;10352605;28;20038;-75
2021/01/05 16:49:40;;;;;;;27.73;15.57;;;;;;;3.23;93.42;101683.91;10368050;28;20037;-77
2021/01/05 16:54:40;;;;;;;28.58;15.63;;;;;;;3.29;93.28;101693.47;10373749;28;20414;-77
2021/01/05 16:59:41;;;;;;;26.13;15.40;;;;;;;3.28;92.97;101681.19;10351790;28;20048;-78
2021/01/05 17:04:41;;;;;;;26.25;16.48;;;;;;;3.02;92.99;101642.53;10351310;28;20092;-77
2021/01/05 17:09:42;;;;;;;26.38;16.45;;;;;;;3.22;93.71;101682.31;10342326;28;20046;-79
2021/01/05 17:14:43;;;;;;;27.95;16.40;;;;;;;3.14;93.33;101669.63;10372120;28;20130;-79
2021/01/05 17:19:45;;;;;;;28.20;17.10;;;;;;;3.30;93.33;101689.69;10354233;28;20037;-77
2021/01/05 17:24:46;;;;;;;25.95;16.30;;;;;;;3.30;93.23;101689.69;10360296;28;20541;-78
2021/01/05 17:29:47;;;;;;;30.83;18.23;;;;;;;3.22;93.84;101687.66;10354586;28;20049;-79
2021/01/05 17:34:51;;;;;;;28.57;16.67;;;;;;;3.14;93.73;101685.66;10358870;28;20607;-78
2021/01/05 17:39:51;;;;;;;26.70;17.13;;;;;;;2.27;93.61;101542.59;10362670;28;20569;-77
2021/01/05 17:44:52;;;;;;;30.90;18.30;;;;;;;3.23;93.34;101694.59;10336900;28;20033;-78
2021/01/05 17:49:58;;;;;;;30.30;16.65;;;;;;;3.28;93.74;101702.56;10368539;28;20437;-81
2021/01/05 17:54:59;;;;;;;31.05;18.08;;;;;;;3.24;93.87;101684.72;10362934;28;20128;-82
2021/01/05 17:59:59;;;;;;;31.08;18.70;;;;;;;2.34;94.13;101572.38;10374390;28;20045;-83
2021/01/05 18:05:00;;;;;;;34.17;18.65;;;;;;;3.30;93.72;101705.72;10373486;28;20083;-81
2021/01/05 18:10:00;;;;;;;30.23;18.23;;;;;;;2.87;94.27;101660.34;10347109;28;20520;-81
2021/01/05 18:15:05;;;;;;;29.83;18.15;;;;;;;3.25;93.77;101713.81;10379753;28;20072;-82
2021/01/05 18:20:05;;;;;;;33.58;20.02;;;;;;;3.20;94.60;101711.22;10365944;28;20033;-79
2021/01/05 18:25:07;;;;;;;31.00;19.67;;;;;;;2.46;94.35;101612.00;10362106;28;20042;-82
2021/01/05 18:30:08;;;;;;;30.08;18.95;;;;;;;2.95;94.33;101683.75;10377808;28;20066;-79
2021/01/05 18:35:16;;;;;;;31.30;19.00;;;;;;;3.15;94.77;101719.28;10384631;28;20037;-78
2021/01/05 18:40:30;;;;;;;31.73;19.40;;;;;;;3.03;94.90;101689.53;10358733;28;20413;-78
2021/01/05 18:45:31;;;;;;;31.90;19.50;;;;;;;2.75;94.82;101646.59;10371019;28;20072;-78
2021/01/05 18:50:34;;;;;;;33.63;19.02;;;;;;;3.11;94.48;101712.94;10381180;28;20041;-78
2021/01/05 18:55:37;;;;;;;31.15;19.38;;;;;;;3.18;94.48;101729.41;10387145;28;20064;-77
2021/01/05 19:00:38;;;;;;;32.47;20.55;;;;;;;2.39;94.32;101612.34;10349135;28;20482;-80
2021/01/05 19:05:39;;;;;;;31.95;19.27;;;;;;;3.09;94.04;101733.81;10366669;28;20553;-78
2021/01/05 19:10:47;;;;;;;31.42;19.88;;;;;;;3.15;93.70;101732.66;10379937;28;20054;-78
2021/01/05 19:15:48;;;;;;;31.90;18.27;;;;;;;2.09;92.50;101573.44;10377211;28;20061;-78
2021/01/05 19:20:49;;;;;;;29.27;18.65;;;;;;;3.14;92.63;101729.19;10339939;28;20565;-80
2021/01/05 19:25:49;;;;;;;32.30;19.00;;;;;;;3.08;92.71;101708.16;10368063;28;20044;-80
2021/01/05 19:30:50;;;;;;;31.60;19.30;;;;;;;2.29;92.49;101596.47;10352497;28;20053;-78
2021/01/05 19:35:51;;;;;;;37.10;20.85;;;;;;;2.72;93.06;101680.00;10354133;28;20037;-75
2021/01/05 19:40:51;;;;;;;34.20;19.70;;;;;;;2.88;93.83;101698.53;10378300;28;20037;-77
2021/01/05 19:46:00;;;;;;;30.35;19.88;;;;;;;3.09;93.97;101720.44;10381128;28;20094;-76
2021/01/05 19:51:02;;;;;;;34.83;20.88;;;;;;;3.00;94.08;101727.50;10339302;28;20103;-82
2021/01/05 19:56:02;;;;;;;36.60;19.70;;;;;;;3.08;94.87;101741.03;10375267;28;20042;-77
2021/01/05 20:01:03;;;;;;;33.75;20.00;;;;;;;3.06;94.90;101743.19;10367658;28;20045;-79
2021/01/05 20:06:19;;;;;;;32.63;19.23;;;;;;;2.87;95.47;101719.09;10373684;28;20040;-80
2021/01/05 20:11:24;;;;;;;32.95;19.88;;;;;;;2.74;95.73;101703.75;10354406;28;20062;-77
2021/01/05 20:16:33;;;;;;;35.85;20.48;;;;;;;3.03;95.85;101756.31;10377552;28;20529;-81
2021/01/05 20:21:33;;;;;;;32.85;19.90;;;;;;;2.80;96.86;101724.00;10344676;28;20041;-78
2021/01/05 20:26:34;;;;;;;35.85;19.48;;;;;;;2.95;97.02;101750.50;10376723;28;20084;-79
2021/01/05 20:31:42;;;;;;;33.97;18.83;;;;;;;2.97;97.06;101751.03;10349994;28;20087;-77
2021/01/05 20:36:45;;;;;;;36.35;19.45;;;;;;;2.67;97.87;101704.09;10343543;28;20104;-76
2021/01/05 20:41:49;;;;;;;32.13;19.23;;;;;;;2.95;98.27;101750.50;10355121;28;20132;-79
2021/01/05 20:46:50;;;;;;;37.50;20.50;;;;;;;2.58;98.20;101689.00;10379236;28;20092;-82
2021/01/05 20:51:54;;;;;;;33.72;20.13;;;;;;;2.94;98.40;101751.59;10376962;28;20048;-78
2021/01/05 20:56:54;;;;;;;39.03;20.65;;;;;;;2.66;99.30;101717.75;10345960;28;20096;-80
2021/01/05 21:01:54;;;;;;;38.85;21.25;;;;;;;2.89;99.14;101749.00;10346578;28;20045;-78
2021/01/05 21:06:55;;;;;;;36.50;19.67;;;;;;;2.85;99.78;101745.31;10326808;28;20199;-81
2021/01/05 21:11:56;;;;;;;31.83;18.90;;;;;;;2.59;99.79;101706.59;10379155;28;20153;-80
2021/01/05 21:17:04;;;;;;;36.65;21.10;;;;;;;2.50;99.71;101696.56;10347211;28;20049;-78
2021/01/05 21:22:05;;;;;;;35.13;20.05;;;;;;;2.58;99.74;101705.00;10339216;28;20030;-80
2021/01/05 21:27:08;;;;;;;33.40;19.50;;;;;;;2.87;99.89;101743.16;10380023;28;20759;-77
2021/01/05 21:32:11;;;;;;;36.40;20.60;;;;;;;2.52;100.00;101697.06;10353497;28;20041;-77
2021/01/05 21:37:11;;;;;;;36.13;21.55;;;;;;;2.84;100.00;101749.03;10387254;28;20037;-79
2021/01/05 21:42:12;;;;;;;36.25;20.40;;;;;;;2.53;100.00;101677.28;10357198;28;20037;-79
2021/01/05 21:47:12;;;;;;;42.42;22.50;;;;;;;2.73;100.00;101723.56;10355201;28;20042;-76
2021/01/05 21:52:13;;;;;;;42.60;22.33;;;;;;;2.90;100.00;101734.56;10350294;28;20044;-77
2021/01/05 21:57:16;;;;;;;41.38;23.23;;;;;;;2.91;100.00;101733.47;10362391;28;20163;-77
2021/01/05 22:02:16;;;;;;;43.05;22.33;;;;;;;2.83;100.00;101734.09;10370327;28;20076;-79
2021/01/05 22:07:20;;;;;;;45.78;25.00;;;;;;;2.88;100.00;101734.03;10376050;28;20041;-81
2021/01/05 22:12:20;;;;;;;38.10;21.80;;;;;;;2.94;100.00;101735.59;10381189;28;20064;-80
2021/01/05 22:17:21;;;;;;;34.40;20.80;;;;;;;2.93;100.00;101733.97;10373853;28;20516;-83
2021/01/05 22:22:24;;;;;;;33.10;19.65;;;;;;;2.87;100.00;101732.47;10377941;28;20224;-81
2021/01/05 22:27:25;;;;;;;33.83;20.20;;;;;;;2.99;100.00;101731.25;10361574;28;20055;-82
2021/01/05 22:32:26;;;;;;;30.05;19.23;;;;;;;2.59;100.00;101674.56;10368761;28;20048;-81
2021/01/05 22:37:26;;;;;;;25.88;17.05;;;;;;;2.83;99.88;101722.63;10380169;28;20106;-81
2021/01/05 22:42:26;;;;;;;26.27;16.67;;;;;;;2.96;98.99;101738.78;10357866;28;20037;-81
2021/01/05 22:47:27;;;;;;;24.52;16.23;;;;;;;2.87;98.38;101724.44;10362243;28;20041;-76
2021/01/05 22:52:27;;;;;;;26.30;17.17;;;;;;;2.92;98.16;101732.41;10381687;28;20473;-76
2021/01/05 22:57:28;;;;;;;25.52;15.98;;;;;;;2.79;98.19;101711.72;10362330;28;20088;-76
2021/01/05 23:02:28;;;;;;;25.25;15.80;;;;;;;2.68;98.33;101689.69;10380975;28;20041;-77